sensor_id;sensor_type;location;lat;lon;timestamp;temperature;humidity
18225;DHT22;9237;48.590;8.854;2024-03-02T00:00:49;3.30;99.90
18225;DHT22;9237;48.590;8.854;2024-03-02T00:03:17;3.20;99.90
18225;DHT22;9237;48.590;8.854;2024-03-02T00:05:49;3.30;99.90
18225;DHT22;9237;48.590;8.854;2024-03-02T00:08:22;3.30;99.90
18225;DHT22;9237;48.590;8.854;2024-03-02T00:10:49;3.50;99.90
18225;DHT22;9237;48.590;8.854;2024-03-02T00:13:16;3.60;99.90
18225;DHT22;9237;48.590;8.854;2024-03-02T00:15:47;3.60;99.90
18225;DHT22;9237;48.590;8.854;2024-03-02T00:18:18;3.60;99.90
18225;DHT22;9237;48.590;8.854;2024-03-02T00:20:47;3.50;99.90
18225;DHT22;9237;48.590;8.854;2024-03-02T00:23:15;3.40;99.90
18225;DHT22;9237;48.590;8.854;2024-03-02T00:25:44;3.30;99.90
18225;DHT22;9237;48.590;8.854;2024-03-02T00:28:14;3.20;99.90
18225;DHT22;9237;48.590;8.854;2024-03-02T00:30:57;3.20;99.90
18225;DHT22;9237;48.590;8.854;2024-03-02T00:33:26;3.20;99.90
18225;DHT22;9237;48.590;8.854;2024-03-02T00:35:55;3.20;99.90
18225;DHT22;9237;48.590;8.854;2024-03-02T00:38:23;3.30;99.90
18225;DHT22;9237;48.590;8.854;2024-03-02T00:40:50;3.20;99.90
18225;DHT22;9237;48.590;8.854;2024-03-02T00:43:43;3.20;99.90
18225;DHT22;9237;48.590;8.854;2024-03-02T00:46:11;3.10;99.90
18225;DHT22;9237;48.590;8.854;2024-03-02T00:48:39;3.20;99.90
18225;DHT22;9237;48.590;8.854;2024-03-02T00:51:09;3.30;99.90
18225;DHT22;9237;48.590;8.854;2024-03-02T00:53:37;3.40;99.90
18225;DHT22;9237;48.590;8.854;2024-03-02T00:56:09;3.50;99.90
18225;DHT22;9237;48.590;8.854;2024-03-02T00:58:36;3.30;99.90
18225;DHT22;9237;48.590;8.854;2024-03-02T01:01:03;3.20;99.90
18225;DHT22;9237;48.590;8.854;2024-03-02T01:03:30;3.20;99.90
18225;DHT22;9237;48.590;8.854;2024-03-02T01:05:57;3.20;99.90
18225;DHT22;9237;48.590;8.854;2024-03-02T01:08:25;3.00;99.90
18225;DHT22;9237;48.590;8.854;2024-03-02T01:10:52;3.00;99.90
18225;DHT22;9237;48.590;8.854;2024-03-02T01:13:21;2.90;99.90
18225;DHT22;9237;48.590;8.854;2024-03-02T01:15:47;2.90;99.90
18225;DHT22;9237;48.590;8.854;2024-03-02T01:18:14;2.80;99.90
18225;DHT22;9237;48.590;8.854;2024-03-02T01:20:41;2.90;99.90
18225;DHT22;9237;48.590;8.854;2024-03-02T01:23:08;3.00;99.90
18225;DHT22;9237;48.590;8.854;2024-03-02T01:25:36;2.90;99.90
18225;DHT22;9237;48.590;8.854;2024-03-02T01:28:03;2.80;99.90
18225;DHT22;9237;48.590;8.854;2024-03-02T01:30:30;2.80;99.90
18225;DHT22;9237;48.590;8.854;2024-03-02T01:32:57;2.80;99.90
18225;DHT22;9237;48.590;8.854;2024-03-02T01:35:24;2.80;99.90
18225;DHT22;9237;48.590;8.854;2024-03-02T01:37:52;2.90;99.90
18225;DHT22;9237;48.590;8.854;2024-03-02T01:40:19;2.90;99.90
18225;DHT22;9237;48.590;8.854;2024-03-02T01:42:47;2.70;99.90
18225;DHT22;9237;48.590;8.854;2024-03-02T01:45:14;2.50;99.90
18225;DHT22;9237;48.590;8.854;2024-03-02T01:47:40;2.40;99.90
18225;DHT22;9237;48.590;8.854;2024-03-02T01:50:08;2.30;99.90
18225;DHT22;9237;48.590;8.854;2024-03-02T01:52:36;2.30;99.90
18225;DHT22;9237;48.590;8.854;2024-03-02T01:55:04;2.40;99.90
18225;DHT22;9237;48.590;8.854;2024-03-02T01:57:31;2.50;99.90
18225;DHT22;9237;48.590;8.854;2024-03-02T02:00:00;2.50;99.90
18225;DHT22;9237;48.590;8.854;2024-03-02T02:02:27;2.60;99.90
18225;DHT22;9237;48.590;8.854;2024-03-02T02:04:54;2.70;99.90
18225;DHT22;9237;48.590;8.854;2024-03-02T02:07:21;2.60;99.90
18225;DHT22;9237;48.590;8.854;2024-03-02T02:09:47;2.50;99.90
18225;DHT22;9237;48.590;8.854;2024-03-02T02:12:14;2.30;99.90
18225;DHT22;9237;48.590;8.854;2024-03-02T02:14:47;2.20;99.90
18225;DHT22;9237;48.590;8.854;2024-03-02T02:17:16;2.10;99.90
18225;DHT22;9237;48.590;8.854;2024-03-02T02:19:43;2.00;99.90
18225;DHT22;9237;48.590;8.854;2024-03-02T02:22:11;1.90;99.90
18225;DHT22;9237;48.590;8.854;2024-03-02T02:24:40;1.80;99.90
18225;DHT22;9237;48.590;8.854;2024-03-02T02:27:07;1.80;99.90
18225;DHT22;9237;48.590;8.854;2024-03-02T02:29:34;1.70;99.90
18225;DHT22;9237;48.590;8.854;2024-03-02T02:32:01;1.80;99.90
18225;DHT22;9237;48.590;8.854;2024-03-02T02:34:28;1.90;99.90
18225;DHT22;9237;48.590;8.854;2024-03-02T02:36:55;1.90;99.90
18225;DHT22;9237;48.590;8.854;2024-03-02T02:39:23;2.00;99.90
18225;DHT22;9237;48.590;8.854;2024-03-02T02:41:50;2.20;99.90
18225;DHT22;9237;48.590;8.854;2024-03-02T02:44:17;2.30;99.90
18225;DHT22;9237;48.590;8.854;2024-03-02T02:46:43;2.40;99.90
18225;DHT22;9237;48.590;8.854;2024-03-02T02:49:10;2.50;99.90
18225;DHT22;9237;48.590;8.854;2024-03-02T02:51:37;2.40;99.90
18225;DHT22;9237;48.590;8.854;2024-03-02T02:54:04;2.30;99.90
18225;DHT22;9237;48.590;8.854;2024-03-02T02:56:32;2.30;99.90
18225;DHT22;9237;48.590;8.854;2024-03-02T02:58:58;2.10;99.90
18225;DHT22;9237;48.590;8.854;2024-03-02T03:01:25;1.90;99.90
18225;DHT22;9237;48.590;8.854;2024-03-02T03:03:52;1.80;99.90
18225;DHT22;9237;48.590;8.854;2024-03-02T03:06:19;1.70;99.90
18225;DHT22;9237;48.590;8.854;2024-03-02T03:08:45;1.60;99.90
18225;DHT22;9237;48.590;8.854;2024-03-02T03:11:12;1.50;99.90
18225;DHT22;9237;48.590;8.854;2024-03-02T03:13:41;1.60;99.90
18225;DHT22;9237;48.590;8.854;2024-03-02T03:16:08;1.60;99.90
18225;DHT22;9237;48.590;8.854;2024-03-02T03:18:35;1.60;99.90
18225;DHT22;9237;48.590;8.854;2024-03-02T03:21:01;1.50;99.90
18225;DHT22;9237;48.590;8.854;2024-03-02T03:23:28;1.50;99.90
18225;DHT22;9237;48.590;8.854;2024-03-02T03:25:55;1.50;99.90
18225;DHT22;9237;48.590;8.854;2024-03-02T03:28:22;1.50;99.90
18225;DHT22;9237;48.590;8.854;2024-03-02T03:30:50;1.50;99.90
18225;DHT22;9237;48.590;8.854;2024-03-02T03:33:17;1.50;99.90
18225;DHT22;9237;48.590;8.854;2024-03-02T03:35:43;1.50;99.90
18225;DHT22;9237;48.590;8.854;2024-03-02T03:38:11;1.40;99.90
18225;DHT22;9237;48.590;8.854;2024-03-02T03:40:38;1.40;99.90
18225;DHT22;9237;48.590;8.854;2024-03-02T03:43:05;1.40;99.90
18225;DHT22;9237;48.590;8.854;2024-03-02T03:45:32;1.50;99.90
18225;DHT22;9237;48.590;8.854;2024-03-02T03:48:00;1.60;99.90
18225;DHT22;9237;48.590;8.854;2024-03-02T03:50:26;1.50;99.90
18225;DHT22;9237;48.590;8.854;2024-03-02T03:52:53;1.40;99.90
18225;DHT22;9237;48.590;8.854;2024-03-02T03:55:20;1.20;99.90
18225;DHT22;9237;48.590;8.854;2024-03-02T03:57:47;1.20;99.90
18225;DHT22;9237;48.590;8.854;2024-03-02T04:00:14;1.30;99.90
18225;DHT22;9237;48.590;8.854;2024-03-02T04:02:41;1.30;99.90
18225;DHT22;9237;48.590;8.854;2024-03-02T04:05:09;1.30;99.90
18225;DHT22;9237;48.590;8.854;2024-03-02T04:07:36;1.40;99.90
18225;DHT22;9237;48.590;8.854;2024-03-02T04:10:07;1.30;99.90
18225;DHT22;9237;48.590;8.854;2024-03-02T04:12:35;1.40;99.90
18225;DHT22;9237;48.590;8.854;2024-03-02T04:15:02;1.40;99.90
18225;DHT22;9237;48.590;8.854;2024-03-02T04:17:31;1.30;99.90
18225;DHT22;9237;48.590;8.854;2024-03-02T04:19:58;1.20;99.90
18225;DHT22;9237;48.590;8.854;2024-03-02T04:22:27;1.10;99.90
18225;DHT22;9237;48.590;8.854;2024-03-02T04:24:54;1.10;99.90
18225;DHT22;9237;48.590;8.854;2024-03-02T04:27:21;1.00;99.90
18225;DHT22;9237;48.590;8.854;2024-03-02T04:29:48;1.10;99.90
18225;DHT22;9237;48.590;8.854;2024-03-02T04:32:15;1.00;99.90
18225;DHT22;9237;48.590;8.854;2024-03-02T04:34:42;1.00;99.90
18225;DHT22;9237;48.590;8.854;2024-03-02T04:37:10;1.00;99.90
18225;DHT22;9237;48.590;8.854;2024-03-02T04:39:39;1.00;99.90
18225;DHT22;9237;48.590;8.854;2024-03-02T04:42:06;1.00;99.90
18225;DHT22;9237;48.590;8.854;2024-03-02T04:44:33;0.90;99.90
18225;DHT22;9237;48.590;8.854;2024-03-02T04:46:59;0.90;99.90
18225;DHT22;9237;48.590;8.854;2024-03-02T04:49:26;0.90;99.90
18225;DHT22;9237;48.590;8.854;2024-03-02T04:51:53;0.90;99.90
18225;DHT22;9237;48.590;8.854;2024-03-02T04:54:20;0.90;99.90
18225;DHT22;9237;48.590;8.854;2024-03-02T04:56:48;0.80;99.90
18225;DHT22;9237;48.590;8.854;2024-03-02T04:59:16;0.90;99.90
18225;DHT22;9237;48.590;8.854;2024-03-02T05:01:43;0.90;99.90
18225;DHT22;9237;48.590;8.854;2024-03-02T05:04:10;0.80;99.90
18225;DHT22;9237;48.590;8.854;2024-03-02T05:06:38;0.70;99.90
18225;DHT22;9237;48.590;8.854;2024-03-02T05:09:05;0.80;99.90
18225;DHT22;9237;48.590;8.854;2024-03-02T05:11:32;0.80;99.90
18225;DHT22;9237;48.590;8.854;2024-03-02T05:14:26;0.80;99.90
18225;DHT22;9237;48.590;8.854;2024-03-02T05:16:51;0.80;99.90
18225;DHT22;9237;48.590;8.854;2024-03-02T05:19:18;0.70;99.90
18225;DHT22;9237;48.590;8.854;2024-03-02T05:21:45;0.70;99.90
18225;DHT22;9237;48.590;8.854;2024-03-02T05:24:12;0.70;99.90
18225;DHT22;9237;48.590;8.854;2024-03-02T05:26:38;0.60;99.90
18225;DHT22;9237;48.590;8.854;2024-03-02T05:29:05;0.70;99.90
18225;DHT22;9237;48.590;8.854;2024-03-02T05:31:34;0.70;99.90
18225;DHT22;9237;48.590;8.854;2024-03-02T05:34:00;0.70;99.90
18225;DHT22;9237;48.590;8.854;2024-03-02T05:36:28;0.60;99.90
18225;DHT22;9237;48.590;8.854;2024-03-02T05:38:55;0.70;99.90
18225;DHT22;9237;48.590;8.854;2024-03-02T05:41:22;0.70;99.90
18225;DHT22;9237;48.590;8.854;2024-03-02T05:43:49;0.70;99.90
18225;DHT22;9237;48.590;8.854;2024-03-02T05:46:16;0.70;99.90
18225;DHT22;9237;48.590;8.854;2024-03-02T05:48:44;0.90;99.90
18225;DHT22;9237;48.590;8.854;2024-03-02T05:51:11;0.80;99.90
18225;DHT22;9237;48.590;8.854;2024-03-02T05:53:37;0.70;99.90
18225;DHT22;9237;48.590;8.854;2024-03-02T05:56:05;0.60;99.90
18225;DHT22;9237;48.590;8.854;2024-03-02T05:58:32;0.50;99.90
18225;DHT22;9237;48.590;8.854;2024-03-02T06:01:11;0.40;99.90
18225;DHT22;9237;48.590;8.854;2024-03-02T06:03:38;0.40;99.90
18225;DHT22;9237;48.590;8.854;2024-03-02T06:06:06;0.40;99.90
18225;DHT22;9237;48.590;8.854;2024-03-02T06:08:33;0.50;99.90
18225;DHT22;9237;48.590;8.854;2024-03-02T06:11:00;0.60;99.90
18225;DHT22;9237;48.590;8.854;2024-03-02T06:13:27;0.60;99.90
18225;DHT22;9237;48.590;8.854;2024-03-02T06:15:54;0.60;99.90
18225;DHT22;9237;48.590;8.854;2024-03-02T06:18:21;0.60;99.90
18225;DHT22;9237;48.590;8.854;2024-03-02T06:20:47;0.60;99.90
18225;DHT22;9237;48.590;8.854;2024-03-02T06:23:16;0.60;99.90
18225;DHT22;9237;48.590;8.854;2024-03-02T06:25:42;0.60;99.90
18225;DHT22;9237;48.590;8.854;2024-03-02T06:28:09;0.60;99.90
18225;DHT22;9237;48.590;8.854;2024-03-02T06:30:36;0.60;99.90
18225;DHT22;9237;48.590;8.854;2024-03-02T06:33:03;0.60;99.90
18225;DHT22;9237;48.590;8.854;2024-03-02T06:35:31;0.70;99.90
18225;DHT22;9237;48.590;8.854;2024-03-02T06:37:58;0.70;99.90
18225;DHT22;9237;48.590;8.854;2024-03-02T06:40:26;0.70;99.90
18225;DHT22;9237;48.590;8.854;2024-03-02T06:42:53;0.80;99.90
18225;DHT22;9237;48.590;8.854;2024-03-02T06:45:20;1.00;99.90
18225;DHT22;9237;48.590;8.854;2024-03-02T06:47:47;1.00;99.90
18225;DHT22;9237;48.590;8.854;2024-03-02T06:50:14;1.00;99.90
18225;DHT22;9237;48.590;8.854;2024-03-02T06:52:41;1.10;99.90
18225;DHT22;9237;48.590;8.854;2024-03-02T06:55:09;1.10;99.90
18225;DHT22;9237;48.590;8.854;2024-03-02T06:57:37;1.10;99.90
18225;DHT22;9237;48.590;8.854;2024-03-02T07:00:05;1.20;99.90
18225;DHT22;9237;48.590;8.854;2024-03-02T07:02:34;1.20;99.90
18225;DHT22;9237;48.590;8.854;2024-03-02T07:05:01;1.20;99.90
18225;DHT22;9237;48.590;8.854;2024-03-02T07:07:28;1.20;99.90
18225;DHT22;9237;48.590;8.854;2024-03-02T07:09:55;1.20;99.90
18225;DHT22;9237;48.590;8.854;2024-03-02T07:12:21;1.20;99.90
18225;DHT22;9237;48.590;8.854;2024-03-02T07:14:49;1.20;99.90
18225;DHT22;9237;48.590;8.854;2024-03-02T07:17:50;1.20;99.90
18225;DHT22;9237;48.590;8.854;2024-03-02T07:20:17;1.20;99.90
18225;DHT22;9237;48.590;8.854;2024-03-02T07:22:43;1.30;99.90
18225;DHT22;9237;48.590;8.854;2024-03-02T07:25:10;1.30;99.90
18225;DHT22;9237;48.590;8.854;2024-03-02T07:27:37;1.30;99.90
18225;DHT22;9237;48.590;8.854;2024-03-02T07:30:06;1.40;99.90
18225;DHT22;9237;48.590;8.854;2024-03-02T07:32:33;1.50;99.90
18225;DHT22;9237;48.590;8.854;2024-03-02T07:35:00;1.60;99.90
18225;DHT22;9237;48.590;8.854;2024-03-02T07:37:29;1.80;99.90
18225;DHT22;9237;48.590;8.854;2024-03-02T07:39:56;1.90;99.90
18225;DHT22;9237;48.590;8.854;2024-03-02T07:42:22;2.30;99.90
18225;DHT22;9237;48.590;8.854;2024-03-02T07:44:49;2.70;99.90
18225;DHT22;9237;48.590;8.854;2024-03-02T07:47:17;3.10;99.90
18225;DHT22;9237;48.590;8.854;2024-03-02T07:49:44;3.60;99.90
18225;DHT22;9237;48.590;8.854;2024-03-02T07:52:11;4.30;99.90
18225;DHT22;9237;48.590;8.854;2024-03-02T07:54:38;4.70;99.90
18225;DHT22;9237;48.590;8.854;2024-03-02T07:57:05;5.10;99.90
18225;DHT22;9237;48.590;8.854;2024-03-02T07:59:31;5.50;99.90
18225;DHT22;9237;48.590;8.854;2024-03-02T08:01:58;5.80;99.90
18225;DHT22;9237;48.590;8.854;2024-03-02T08:04:27;6.20;99.90
18225;DHT22;9237;48.590;8.854;2024-03-02T08:06:54;6.90;99.90
18225;DHT22;9237;48.590;8.854;2024-03-02T08:09:21;7.40;99.90
18225;DHT22;9237;48.590;8.854;2024-03-02T08:11:48;7.70;99.90
18225;DHT22;9237;48.590;8.854;2024-03-02T08:14:14;8.00;99.90
18225;DHT22;9237;48.590;8.854;2024-03-02T08:16:41;8.50;99.90
18225;DHT22;9237;48.590;8.854;2024-03-02T08:19:08;8.60;99.90
18225;DHT22;9237;48.590;8.854;2024-03-02T08:21:37;9.00;99.90
18225;DHT22;9237;48.590;8.854;2024-03-02T08:24:04;9.10;99.90
18225;DHT22;9237;48.590;8.854;2024-03-02T08:26:31;9.50;99.90
18225;DHT22;9237;48.590;8.854;2024-03-02T08:28:58;10.00;99.90
18225;DHT22;9237;48.590;8.854;2024-03-02T08:31:27;10.30;99.90
18225;DHT22;9237;48.590;8.854;2024-03-02T08:33:53;10.80;99.90
18225;DHT22;9237;48.590;8.854;2024-03-02T08:36:20;11.00;99.90
18225;DHT22;9237;48.590;8.854;2024-03-02T08:38:50;11.40;99.90
18225;DHT22;9237;48.590;8.854;2024-03-02T08:41:17;11.60;99.90
18225;DHT22;9237;48.590;8.854;2024-03-02T08:43:44;11.60;99.90
18225;DHT22;9237;48.590;8.854;2024-03-02T08:46:11;11.90;99.90
18225;DHT22;9237;48.590;8.854;2024-03-02T08:48:39;12.50;99.90
18225;DHT22;9237;48.590;8.854;2024-03-02T08:51:07;12.60;99.90
18225;DHT22;9237;48.590;8.854;2024-03-02T08:53:35;12.80;99.90
18225;DHT22;9237;48.590;8.854;2024-03-02T08:56:05;12.90;99.90
18225;DHT22;9237;48.590;8.854;2024-03-02T08:58:32;13.00;99.90
18225;DHT22;9237;48.590;8.854;2024-03-02T09:00:58;13.10;99.90
18225;DHT22;9237;48.590;8.854;2024-03-02T09:03:25;13.00;99.90
18225;DHT22;9237;48.590;8.854;2024-03-02T09:05:52;13.20;99.90
18225;DHT22;9237;48.590;8.854;2024-03-02T09:08:19;13.10;99.90
18225;DHT22;9237;48.590;8.854;2024-03-02T09:10:46;13.20;99.90
18225;DHT22;9237;48.590;8.854;2024-03-02T09:13:14;13.40;99.90
18225;DHT22;9237;48.590;8.854;2024-03-02T09:15:41;13.30;99.90
18225;DHT22;9237;48.590;8.854;2024-03-02T09:18:08;13.40;99.90
18225;DHT22;9237;48.590;8.854;2024-03-02T09:20:35;13.50;99.90
18225;DHT22;9237;48.590;8.854;2024-03-02T09:23:02;13.40;99.90
18225;DHT22;9237;48.590;8.854;2024-03-02T09:25:28;13.20;99.90
18225;DHT22;9237;48.590;8.854;2024-03-02T09:27:55;13.10;99.90
18225;DHT22;9237;48.590;8.854;2024-03-02T09:30:23;13.00;99.90
18225;DHT22;9237;48.590;8.854;2024-03-02T09:32:50;12.60;99.90
18225;DHT22;9237;48.590;8.854;2024-03-02T09:35:17;12.60;99.90
18225;DHT22;9237;48.590;8.854;2024-03-02T09:37:44;12.10;99.90
18225;DHT22;9237;48.590;8.854;2024-03-02T09:40:11;11.90;99.90
18225;DHT22;9237;48.590;8.854;2024-03-02T09:42:38;12.10;99.90
18225;DHT22;9237;48.590;8.854;2024-03-02T09:45:06;12.00;99.90
18225;DHT22;9237;48.590;8.854;2024-03-02T09:47:34;12.10;99.90
18225;DHT22;9237;48.590;8.854;2024-03-02T09:50:01;12.00;99.90
18225;DHT22;9237;48.590;8.854;2024-03-02T09:52:30;12.10;99.90
18225;DHT22;9237;48.590;8.854;2024-03-02T09:54:56;11.80;99.90
18225;DHT22;9237;48.590;8.854;2024-03-02T09:57:23;11.60;99.90
18225;DHT22;9237;48.590;8.854;2024-03-02T09:59:50;11.50;99.90
18225;DHT22;9237;48.590;8.854;2024-03-02T10:02:17;11.50;99.90
18225;DHT22;9237;48.590;8.854;2024-03-02T10:04:45;11.50;99.90
18225;DHT22;9237;48.590;8.854;2024-03-02T10:07:16;11.60;99.90
18225;DHT22;9237;48.590;8.854;2024-03-02T10:09:44;11.70;99.90
18225;DHT22;9237;48.590;8.854;2024-03-02T10:12:12;11.80;99.90
18225;DHT22;9237;48.590;8.854;2024-03-02T10:14:40;11.70;99.90
18225;DHT22;9237;48.590;8.854;2024-03-02T10:17:08;11.80;99.90
18225;DHT22;9237;48.590;8.854;2024-03-02T10:19:35;11.90;99.90
18225;DHT22;9237;48.590;8.854;2024-03-02T10:22:05;11.80;99.90
18225;DHT22;9237;48.590;8.854;2024-03-02T10:24:36;11.80;99.90
18225;DHT22;9237;48.590;8.854;2024-03-02T10:27:08;11.80;99.90
18225;DHT22;9237;48.590;8.854;2024-03-02T10:29:40;11.70;99.90
18225;DHT22;9237;48.590;8.854;2024-03-02T10:32:09;11.70;99.90
18225;DHT22;9237;48.590;8.854;2024-03-02T10:34:36;11.80;99.90
18225;DHT22;9237;48.590;8.854;2024-03-02T10:37:05;11.70;99.90
18225;DHT22;9237;48.590;8.854;2024-03-02T10:39:32;11.80;99.90
18225;DHT22;9237;48.590;8.854;2024-03-02T10:42:02;11.90;99.90
18225;DHT22;9237;48.590;8.854;2024-03-02T10:44:30;12.00;99.90
18225;DHT22;9237;48.590;8.854;2024-03-02T10:47:00;12.10;99.90
18225;DHT22;9237;48.590;8.854;2024-03-02T10:49:29;12.20;99.90
18225;DHT22;9237;48.590;8.854;2024-03-02T10:51:56;12.30;99.90
18225;DHT22;9237;48.590;8.854;2024-03-02T10:54:25;12.40;99.90
18225;DHT22;9237;48.590;8.854;2024-03-02T10:56:56;12.40;99.90
18225;DHT22;9237;48.590;8.854;2024-03-02T10:59:27;12.30;99.90
18225;DHT22;9237;48.590;8.854;2024-03-02T11:01:57;12.40;99.90
18225;DHT22;9237;48.590;8.854;2024-03-02T11:04:25;12.20;99.90
18225;DHT22;9237;48.590;8.854;2024-03-02T11:06:56;12.30;99.90
18225;DHT22;9237;48.590;8.854;2024-03-02T11:09:27;12.40;99.90
18225;DHT22;9237;48.590;8.854;2024-03-02T11:12:00;12.60;99.90
18225;DHT22;9237;48.590;8.854;2024-03-02T11:14:30;12.70;99.90
18225;DHT22;9237;48.590;8.854;2024-03-02T11:16:58;12.50;99.90
18225;DHT22;9237;48.590;8.854;2024-03-02T11:19:27;12.40;99.90
18225;DHT22;9237;48.590;8.854;2024-03-02T11:21:54;12.50;99.90
18225;DHT22;9237;48.590;8.854;2024-03-02T11:24:32;12.40;99.90
18225;DHT22;9237;48.590;8.854;2024-03-02T11:26:59;12.70;99.90
18225;DHT22;9237;48.590;8.854;2024-03-02T11:29:45;12.50;99.90
18225;DHT22;9237;48.590;8.854;2024-03-02T11:32:21;12.50;99.90
18225;DHT22;9237;48.590;8.854;2024-03-02T11:34:50;12.80;99.90
18225;DHT22;9237;48.590;8.854;2024-03-02T11:37:18;12.80;99.90
18225;DHT22;9237;48.590;8.854;2024-03-02T11:39:49;12.80;99.90
18225;DHT22;9237;48.590;8.854;2024-03-02T11:42:16;13.00;99.90
18225;DHT22;9237;48.590;8.854;2024-03-02T11:44:45;13.10;99.90
18225;DHT22;9237;48.590;8.854;2024-03-02T11:47:13;13.30;99.90
18225;DHT22;9237;48.590;8.854;2024-03-02T11:49:42;13.60;99.90
18225;DHT22;9237;48.590;8.854;2024-03-02T11:52:11;13.80;99.90
18225;DHT22;9237;48.590;8.854;2024-03-02T11:54:39;13.70;99.90
18225;DHT22;9237;48.590;8.854;2024-03-02T11:57:14;13.80;99.90
18225;DHT22;9237;48.590;8.854;2024-03-02T11:59:41;13.90;99.90
18225;DHT22;9237;48.590;8.854;2024-03-02T12:02:15;13.80;99.90
18225;DHT22;9237;48.590;8.854;2024-03-02T12:04:42;13.90;99.90
18225;DHT22;9237;48.590;8.854;2024-03-02T12:07:10;14.00;99.90
18225;DHT22;9237;48.590;8.854;2024-03-02T12:09:37;14.40;99.90
18225;DHT22;9237;48.590;8.854;2024-03-02T12:12:05;13.90;99.90
18225;DHT22;9237;48.590;8.854;2024-03-02T12:14:35;14.00;99.90
18225;DHT22;9237;48.590;8.854;2024-03-02T12:17:02;14.10;99.90
18225;DHT22;9237;48.590;8.854;2024-03-02T12:19:30;14.20;99.90
18225;DHT22;9237;48.590;8.854;2024-03-02T12:21:57;14.10;99.90
18225;DHT22;9237;48.590;8.854;2024-03-02T12:24:26;14.20;99.90
18225;DHT22;9237;48.590;8.854;2024-03-02T12:26:53;14.20;99.90
18225;DHT22;9237;48.590;8.854;2024-03-02T12:29:21;14.20;99.90
18225;DHT22;9237;48.590;8.854;2024-03-02T12:31:50;14.10;99.90
18225;DHT22;9237;48.590;8.854;2024-03-02T12:34:18;14.10;99.90
18225;DHT22;9237;48.590;8.854;2024-03-02T12:36:45;14.40;99.90
18225;DHT22;9237;48.590;8.854;2024-03-02T12:39:15;14.40;99.90
18225;DHT22;9237;48.590;8.854;2024-03-02T12:41:42;14.40;99.90
18225;DHT22;9237;48.590;8.854;2024-03-02T12:44:09;14.50;99.90
18225;DHT22;9237;48.590;8.854;2024-03-02T12:46:36;14.60;99.90
18225;DHT22;9237;48.590;8.854;2024-03-02T12:49:08;14.70;99.90
18225;DHT22;9237;48.590;8.854;2024-03-02T12:51:36;14.90;99.90
18225;DHT22;9237;48.590;8.854;2024-03-02T12:54:03;14.90;99.90
18225;DHT22;9237;48.590;8.854;2024-03-02T12:56:31;14.70;99.90
18225;DHT22;9237;48.590;8.854;2024-03-02T12:58:58;14.50;99.90
18225;DHT22;9237;48.590;8.854;2024-03-02T13:01:25;14.50;99.90
18225;DHT22;9237;48.590;8.854;2024-03-02T13:03:53;14.50;99.90
18225;DHT22;9237;48.590;8.854;2024-03-02T13:06:22;14.50;99.90
18225;DHT22;9237;48.590;8.854;2024-03-02T13:08:49;14.60;99.90
18225;DHT22;9237;48.590;8.854;2024-03-02T13:11:16;14.60;99.90
18225;DHT22;9237;48.590;8.854;2024-03-02T13:13:43;14.60;99.90
18225;DHT22;9237;48.590;8.854;2024-03-02T13:16:10;14.60;99.90
18225;DHT22;9237;48.590;8.854;2024-03-02T13:18:38;14.70;99.90
18225;DHT22;9237;48.590;8.854;2024-03-02T13:21:05;14.80;99.90
18225;DHT22;9237;48.590;8.854;2024-03-02T13:23:33;15.10;99.90
18225;DHT22;9237;48.590;8.854;2024-03-02T13:26:00;15.10;99.50
18225;DHT22;9237;48.590;8.854;2024-03-02T13:28:27;15.30;98.60
18225;DHT22;9237;48.590;8.854;2024-03-02T13:30:54;15.30;98.50
18225;DHT22;9237;48.590;8.854;2024-03-02T13:33:21;15.60;98.40
18225;DHT22;9237;48.590;8.854;2024-03-02T13:35:49;15.90;98.00
18225;DHT22;9237;48.590;8.854;2024-03-02T13:38:16;16.30;97.50
18225;DHT22;9237;48.590;8.854;2024-03-02T13:40:44;16.60;96.40
18225;DHT22;9237;48.590;8.854;2024-03-02T13:43:11;16.70;94.70
18225;DHT22;9237;48.590;8.854;2024-03-02T13:45:38;16.90;93.30
18225;DHT22;9237;48.590;8.854;2024-03-02T13:48:06;17.00;91.70
18225;DHT22;9237;48.590;8.854;2024-03-02T13:50:33;17.10;91.00
18225;DHT22;9237;48.590;8.854;2024-03-02T13:52:59;17.10;90.50
18225;DHT22;9237;48.590;8.854;2024-03-02T13:55:26;17.60;89.80
18225;DHT22;9237;48.590;8.854;2024-03-02T13:57:54;18.20;87.70
18225;DHT22;9237;48.590;8.854;2024-03-02T14:00:21;18.90;86.70
18225;DHT22;9237;48.590;8.854;2024-03-02T14:02:48;19.90;86.10
18225;DHT22;9237;48.590;8.854;2024-03-02T14:05:16;20.10;80.20
18225;DHT22;9237;48.590;8.854;2024-03-02T14:07:43;21.20;79.70
18225;DHT22;9237;48.590;8.854;2024-03-02T14:10:10;22.00;78.50
18225;DHT22;9237;48.590;8.854;2024-03-02T14:12:37;21.80;73.90
18225;DHT22;9237;48.590;8.854;2024-03-02T14:15:06;22.50;72.80
18225;DHT22;9237;48.590;8.854;2024-03-02T14:17:34;22.50;70.10
18225;DHT22;9237;48.590;8.854;2024-03-02T14:20:00;22.90;68.90
18225;DHT22;9237;48.590;8.854;2024-03-02T14:22:27;22.90;67.80
18225;DHT22;9237;48.590;8.854;2024-03-02T14:24:54;22.80;66.10
18225;DHT22;9237;48.590;8.854;2024-03-02T14:27:21;22.90;66.70
18225;DHT22;9237;48.590;8.854;2024-03-02T14:29:48;23.10;64.40
18225;DHT22;9237;48.590;8.854;2024-03-02T14:32:16;23.20;63.60
18225;DHT22;9237;48.590;8.854;2024-03-02T14:34:42;23.10;62.10
18225;DHT22;9237;48.590;8.854;2024-03-02T14:37:12;22.30;60.70
18225;DHT22;9237;48.590;8.854;2024-03-02T14:39:39;21.40;63.50
18225;DHT22;9237;48.590;8.854;2024-03-02T14:42:05;20.70;62.60
18225;DHT22;9237;48.590;8.854;2024-03-02T14:44:33;21.30;63.30
18225;DHT22;9237;48.590;8.854;2024-03-02T14:47:01;21.80;62.80
18225;DHT22;9237;48.590;8.854;2024-03-02T14:49:30;21.20;60.00
18225;DHT22;9237;48.590;8.854;2024-03-02T14:51:59;20.80;60.80
18225;DHT22;9237;48.590;8.854;2024-03-02T14:54:26;19.90;64.40
18225;DHT22;9237;48.590;8.854;2024-03-02T14:56:52;19.10;65.50
18225;DHT22;9237;48.590;8.854;2024-03-02T14:59:19;18.70;67.00
18225;DHT22;9237;48.590;8.854;2024-03-02T15:01:46;17.70;68.90
18225;DHT22;9237;48.590;8.854;2024-03-02T15:04:14;16.60;72.30
18225;DHT22;9237;48.590;8.854;2024-03-02T15:06:43;15.90;74.50
18225;DHT22;9237;48.590;8.854;2024-03-02T15:09:10;15.40;76.80
18225;DHT22;9237;48.590;8.854;2024-03-02T15:11:37;15.10;77.40
18225;DHT22;9237;48.590;8.854;2024-03-02T15:14:05;14.80;78.60
18225;DHT22;9237;48.590;8.854;2024-03-02T15:16:31;14.80;78.60
18225;DHT22;9237;48.590;8.854;2024-03-02T15:18:58;14.70;78.10
18225;DHT22;9237;48.590;8.854;2024-03-02T15:21:25;14.70;79.40
18225;DHT22;9237;48.590;8.854;2024-03-02T15:23:53;14.60;79.40
18225;DHT22;9237;48.590;8.854;2024-03-02T15:26:20;14.60;79.50
18225;DHT22;9237;48.590;8.854;2024-03-02T15:28:47;14.50;80.00
18225;DHT22;9237;48.590;8.854;2024-03-02T15:31:14;14.50;80.20
18225;DHT22;9237;48.590;8.854;2024-03-02T15:33:40;14.40;80.00
18225;DHT22;9237;48.590;8.854;2024-03-02T15:36:07;14.30;80.40
18225;DHT22;9237;48.590;8.854;2024-03-02T15:38:34;14.20;81.40
18225;DHT22;9237;48.590;8.854;2024-03-02T15:41:04;14.20;81.40
18225;DHT22;9237;48.590;8.854;2024-03-02T15:43:31;14.00;81.90
18225;DHT22;9237;48.590;8.854;2024-03-02T15:45:58;14.00;82.80
18225;DHT22;9237;48.590;8.854;2024-03-02T15:48:25;14.00;81.70
18225;DHT22;9237;48.590;8.854;2024-03-02T15:50:53;14.00;81.80
18225;DHT22;9237;48.590;8.854;2024-03-02T15:53:21;14.00;81.40
18225;DHT22;9237;48.590;8.854;2024-03-02T15:55:47;13.90;81.50
18225;DHT22;9237;48.590;8.854;2024-03-02T15:58:16;13.90;81.20